Die Nordseeküste

2020/06/02 07:20 EDDH 020720Z VRB02KT CAVOK 21/07 Q1021 NOSIG
2008/11/04 23:50 TAF AMD EDDH 042350Z 050007 CNL= TAF AMD EDDV 042350Z 050007 CNL
2020/06/02 06:27 TAF EDDH 020500Z 0206/0312 05004KT CAVOK BECMG 0305/0307 12006KT

2020/06/02 07:20 EDXW 020720Z 17005KT CAVOK 18/08 Q1021
2020/06/01 20:51 TAF TAF EDXW 012020Z 0120/0121 CNL
2009/07/07 14:00 TAF EDXW 071400Z 0715/0719 22015G25KT 9999 SCT020

2020/06/02 07:21 EKSB 020721Z 31004KT CAVOK 19/11 Q1021
2020/06/02 06:06 TAF EKSB 020553Z 0206/0213 32005KT CAVOK
2016/01/27 09:03 TAF TAF EKSB 270856Z 2709/2721 23022KT 5000 -RA BR BKN008 TEMPO 2709/2721 24025G40KT 2000 RADZ BKN004